Capitol Logistics 7345

Operating for MZN



KABE
Lehigh Valley International Airport
Allentown, Pennsylvania
KCVG
Cincinnati/Northern Kentucky International Airport
Covington, Kentucky

Activity Log

Date Flight Route Aircraft Duration
04/15/2021 CPX7345 ETX V30 PSB CTW TIGRR3 B752 1h 37m

Route Details

Aircraft Information
Primary: Boeing 767-300BDSF
Backup: Boeing 757-200SF
Route Data
Distance: 437nm
Duration: 1h 27m
Recm'd Route: ETX V30 PSB MAULL KODIE CTW TIGRR3
Origin Wx: KABE 180151Z 29003KT 10SM OVC080 09/02 A2984 RMK AO2 SLP107 T00890017
Dest. Wx: KCVG 180152Z 21003KT 10SM CLR 07/04 A2993 RMK AO2 SLP133 T00720039
Notes: